createdAt,value
2018-06-11T00:02:21.758Z,8.07
2018-06-11T00:04:50.309Z,7.53
2018-06-11T00:07:18.981Z,6.70
2018-06-11T00:09:47.755Z,7.10
2018-06-11T00:12:16.549Z,6.90
2018-06-11T00:14:45.300Z,6.70
2018-06-11T00:17:14.069Z,6.87
2018-06-11T00:19:42.665Z,5.83
2018-06-11T00:22:11.330Z,6.50
2018-06-11T00:24:40.104Z,6.10
2018-06-11T00:30:05.845Z,6.40
2018-06-11T00:32:34.606Z,5.60
2018-06-11T00:35:03.352Z,6.07
2018-06-11T00:37:32.117Z,5.37
2018-06-11T00:40:00.884Z,5.60
2018-06-11T00:42:29.772Z,7.23
2018-06-11T00:44:58.540Z,6.67
2018-06-11T00:47:27.282Z,7.10
2018-06-11T00:49:55.899Z,6.67
2018-06-11T00:52:24.573Z,6.90
2018-06-11T00:54:53.334Z,7.50
2018-06-11T00:57:22.085Z,7.63
2018-06-11T00:59:50.834Z,7.00
2018-06-11T01:02:19.592Z,7.43
2018-06-11T01:04:48.337Z,7.20
2018-06-11T01:07:17.081Z,6.77
2018-06-11T01:09:45.618Z,6.63
2018-06-11T01:12:14.272Z,5.47
2018-06-11T01:14:43.129Z,5.73
2018-06-11T01:17:11.868Z,5.37
2018-06-11T01:19:40.633Z,5.90
2018-06-11T01:22:09.499Z,5.40
2018-06-11T01:24:38.281Z,5.80
2018-06-11T01:27:07.028Z,5.10
2018-06-11T01:29:35.782Z,4.90
2018-06-11T01:32:04.595Z,4.73
2018-06-11T01:34:33.352Z,4.93
2018-06-11T01:37:02.113Z,5.40
2018-06-11T01:39:30.860Z,5.00
2018-06-11T01:41:59.617Z,5.10
2018-06-11T01:44:28.377Z,4.63
2018-06-11T01:46:57.123Z,5.07
2018-06-11T01:49:25.948Z,4.70
2018-06-11T01:51:54.701Z,5.67
2018-06-11T01:54:23.479Z,5.03
2018-06-11T01:56:52.225Z,4.80
2018-06-11T01:59:20.989Z,5.57
2018-06-11T02:01:49.728Z,4.73
2018-06-11T02:04:18.485Z,4.80
2018-06-11T02:06:47.248Z,4.13
2018-06-11T02:09:16.028Z,4.83
2018-06-11T02:11:44.753Z,4.47
2018-06-11T02:14:13.514Z,4.57
2018-06-11T02:16:42.273Z,4.13
2018-06-11T02:19:11.066Z,4.53
2018-06-11T02:21:39.801Z,4.63
2018-06-11T02:24:08.564Z,4.60
2018-06-11T02:26:37.313Z,4.33
2018-06-11T02:29:06.081Z,4.90
2018-06-11T02:31:34.656Z,4.90
2018-06-11T02:34:03.345Z,5.20
2018-06-11T02:36:31.933Z,4.83
2018-06-11T02:39:00.605Z,5.33
2018-06-11T02:41:29.365Z,4.47
2018-06-11T02:43:58.301Z,4.90
2018-06-11T02:46:26.888Z,4.90
2018-06-11T02:48:55.545Z,4.67
2018-06-11T02:51:24.332Z,5.00
2018-06-11T02:53:53.121Z,4.47
2018-06-11T02:56:21.876Z,5.37
2018-06-11T02:58:50.629Z,4.70
2018-06-11T03:01:19.385Z,5.10
2018-06-11T03:03:48.130Z,5.00
2018-06-11T03:06:16.890Z,5.20
2018-06-11T03:08:45.552Z,4.60
2018-06-11T03:11:14.372Z,4.77
2018-06-11T03:13:43.150Z,4.70
2018-06-11T03:16:11.877Z,4.73
2018-06-11T03:18:40.673Z,4.43
2018-06-11T03:21:09.449Z,4.23
2018-06-11T03:23:38.239Z,4.90
2018-06-11T03:26:07.031Z,4.20
2018-06-11T03:28:35.773Z,4.63
2018-06-11T03:31:04.357Z,5.07
2018-06-11T03:33:33.018Z,5.33
2018-06-11T03:36:01.775Z,5.07
2018-06-11T03:38:30.524Z,4.47
2018-06-11T03:40:59.064Z,4.37
2018-06-11T03:43:27.720Z,5.03
2018-06-11T03:45:56.476Z,4.90
2018-06-11T03:48:25.254Z,5.40
2018-06-11T03:50:54.019Z,4.63
2018-06-11T03:53:22.772Z,5.10
2018-06-11T03:55:51.535Z,5.40
2018-06-11T03:58:20.293Z,5.57
2018-06-11T04:00:49.150Z,5.10
2018-06-11T04:03:17.869Z,5.63
2018-06-11T04:05:46.617Z,5.03
2018-06-11T04:08:15.400Z,5.43
2018-06-11T04:10:44.218Z,5.60
2018-06-11T04:13:12.735Z,5.67
2018-06-11T04:15:41.414Z,5.47
2018-06-11T04:18:10.223Z,4.93
2018-06-11T04:20:38.965Z,4.93
2018-06-11T04:23:07.785Z,4.90
2018-06-11T04:25:36.376Z,5.73
2018-06-11T04:28:05.093Z,4.33
2018-06-11T04:30:33.895Z,4.57
2018-06-11T04:33:02.477Z,4.33
2018-06-11T04:35:31.153Z,4.50
2018-06-11T04:37:59.885Z,4.17
2018-06-11T04:40:28.674Z,3.90
2018-06-11T04:42:57.421Z,3.77
2018-06-11T04:45:26.179Z,3.27
2018-06-11T04:47:55.242Z,3.20
2018-06-11T04:50:24.017Z,3.10
2018-06-11T04:52:52.783Z,2.60
2018-06-11T04:55:21.598Z,2.50
2018-06-11T04:57:50.410Z,2.50
2018-06-11T05:00:19.168Z,2.20
2018-06-11T05:02:47.928Z,2.03
2018-06-11T05:05:16.685Z,2.50
2018-06-11T05:07:45.408Z,2.60
2018-06-11T05:10:14.062Z,2.30
2018-06-11T05:12:42.625Z,2.30
2018-06-11T05:15:11.073Z,2.40
2018-06-11T05:17:39.741Z,2.17
2018-06-11T05:20:08.527Z,3.83
2018-06-11T05:22:37.270Z,2.00
2018-06-11T05:25:06.046Z,2.47
2018-06-11T05:27:34.861Z,2.07
2018-06-11T05:30:03.763Z,2.83
2018-06-11T05:32:32.661Z,2.53
2018-06-11T05:35:01.417Z,2.47
2018-06-11T05:37:30.185Z,2.17
2018-06-11T05:39:58.940Z,2.40
2018-06-11T05:42:27.701Z,2.47
2018-06-11T05:44:56.457Z,2.67
2018-06-11T05:47:25.230Z,2.27
2018-06-11T05:49:53.988Z,2.60
2018-06-11T05:52:22.745Z,2.37
2018-06-11T05:54:51.316Z,2.47
2018-06-11T05:57:19.817Z,2.53
2018-06-11T05:59:48.497Z,2.70
2018-06-11T06:02:17.085Z,2.20
2018-06-11T06:04:45.736Z,2.47
2018-06-11T06:07:14.501Z,3.40
2018-06-11T06:09:43.250Z,2.40
2018-06-11T06:12:12.022Z,3.07
2018-06-11T06:14:40.808Z,2.60
2018-06-11T06:17:09.346Z,2.37
2018-06-11T06:19:38.013Z,2.83
2018-06-11T06:22:06.757Z,2.50
2018-06-11T06:24:35.553Z,2.70
2018-06-11T06:27:04.514Z,2.93
2018-06-11T06:29:33.377Z,2.50
2018-06-11T06:32:02.133Z,2.60
2018-06-11T06:34:30.758Z,2.37
2018-06-11T06:36:59.234Z,2.77
2018-06-11T06:39:27.942Z,2.63
2018-06-11T06:41:56.653Z,2.90
2018-06-11T06:44:25.445Z,2.60
2018-06-11T06:46:54.237Z,2.80
2018-06-11T06:49:23.025Z,3.07
2018-06-11T06:51:51.781Z,2.67
2018-06-11T06:54:20.576Z,2.80
2018-06-11T06:56:49.340Z,2.80
2018-06-11T06:59:18.093Z,3.20
2018-06-11T07:01:46.872Z,2.90
2018-06-11T07:04:15.464Z,2.77
2018-06-11T07:06:44.119Z,2.93
2018-06-11T07:09:12.884Z,2.67
2018-06-11T07:11:41.658Z,3.43
2018-06-11T07:14:10.590Z,2.97
2018-06-11T07:16:39.349Z,3.33
2018-06-11T07:19:08.185Z,3.27
2018-06-11T07:21:36.745Z,3.70
2018-06-11T07:24:05.438Z,3.00
2018-06-11T07:26:34.257Z,3.33
2018-06-11T07:29:03.009Z,3.40
2018-06-11T07:31:31.765Z,3.43
2018-06-11T07:34:00.736Z,3.10
2018-06-11T07:36:29.498Z,3.33
2018-06-11T07:38:58.081Z,3.43
2018-06-11T07:41:26.740Z,3.30
2018-06-11T07:43:55.497Z,4.67
2018-06-11T07:46:24.250Z,3.80
2018-06-11T07:48:52.985Z,3.00
2018-06-11T07:51:21.768Z,3.80
2018-06-11T07:53:50.533Z,2.87
2018-06-11T07:56:19.300Z,3.80
2018-06-11T07:58:48.048Z,2.83
2018-06-11T08:01:16.847Z,2.80
2018-06-11T08:03:45.624Z,3.00
2018-06-11T08:06:14.393Z,2.80
2018-06-11T08:08:43.173Z,3.53
2018-06-11T08:11:11.944Z,3.00
2018-06-11T08:13:40.815Z,3.03
2018-06-11T08:16:09.513Z,2.87
2018-06-11T08:18:38.268Z,2.77
2018-06-11T08:21:07.029Z,3.07
2018-06-11T08:23:35.776Z,3.43
2018-06-11T08:26:04.589Z,2.97
2018-06-11T08:28:33.341Z,3.33
2018-06-11T08:31:02.093Z,2.90
2018-06-11T08:33:30.914Z,2.60
2018-06-11T08:35:59.503Z,3.10
2018-06-11T08:38:28.193Z,3.70
2018-06-11T08:40:56.780Z,2.90
2018-06-11T08:43:25.446Z,3.50
2018-06-11T08:45:54.201Z,3.37
2018-06-11T08:48:22.967Z,3.07
2018-06-11T08:50:51.709Z,3.60
2018-06-11T08:53:20.490Z,3.00
2018-06-11T08:55:49.242Z,3.37
2018-06-11T08:58:17.997Z,3.80
2018-06-11T09:00:46.754Z,3.50
2018-06-11T09:03:15.552Z,4.13
2018-06-11T09:05:44.392Z,3.33
2018-06-11T09:08:13.201Z,3.27
2018-06-11T09:10:42.116Z,3.63
2018-06-11T09:13:10.919Z,3.10
2018-06-11T09:15:39.492Z,3.90
2018-06-11T09:18:08.033Z,3.40
2018-06-11T09:20:36.457Z,3.27
2018-06-11T09:23:05.253Z,4.20
2018-06-11T09:25:33.860Z,3.20
2018-06-11T09:28:02.521Z,3.63
2018-06-11T09:30:31.060Z,2.90
2018-06-11T09:32:59.755Z,3.00
2018-06-11T09:35:28.516Z,3.13
2018-06-11T09:37:57.260Z,3.97
2018-06-11T09:40:25.853Z,3.43
2018-06-11T09:42:54.533Z,2.93
2018-06-11T09:45:23.108Z,2.70
2018-06-11T09:47:51.601Z,3.87
2018-06-11T09:50:20.283Z,3.37
2018-06-11T09:52:48.837Z,3.07
2018-06-11T09:55:17.489Z,3.53
2018-06-11T09:57:46.241Z,2.90
2018-06-11T10:00:20.377Z,3.37
2018-06-11T10:02:49.301Z,3.20
2018-06-11T10:05:18.046Z,2.50
2018-06-11T10:07:46.796Z,3.37
2018-06-11T10:10:15.565Z,2.90
2018-06-11T10:12:44.500Z,2.53
2018-06-11T10:15:13.100Z,3.00
2018-06-11T10:17:41.945Z,3.27
2018-06-11T10:20:10.696Z,2.60
2018-06-11T10:22:39.457Z,2.50
2018-06-11T10:25:08.198Z,2.87
2018-06-11T10:27:36.965Z,2.80
2018-06-11T10:30:05.724Z,2.60
2018-06-11T10:32:34.277Z,2.60
2018-06-11T10:35:02.769Z,2.70
2018-06-11T10:37:31.260Z,3.00
2018-06-11T10:40:00.083Z,3.07
2018-06-11T10:42:28.825Z,3.17
2018-06-11T10:44:57.584Z,2.70
2018-06-11T10:47:26.413Z,2.90
2018-06-11T10:49:54.960Z,2.70
2018-06-11T10:52:23.673Z,2.70
2018-06-11T10:54:52.434Z,2.87
2018-06-11T10:57:21.400Z,2.60
2018-06-11T10:59:50.152Z,2.60
2018-06-11T11:02:18.869Z,2.93
2018-06-11T11:04:47.534Z,3.20
2018-06-11T11:07:16.315Z,3.20
2018-06-11T11:09:44.864Z,3.27
2018-06-11T11:12:13.558Z,3.23
2018-06-11T11:14:42.314Z,3.37
2018-06-11T11:17:11.129Z,3.13
2018-06-11T11:19:39.981Z,3.00
2018-06-11T11:22:08.730Z,3.40
2018-06-11T11:24:37.507Z,3.03
2018-06-11T11:27:05.989Z,3.37
2018-06-11T11:29:34.504Z,2.93
2018-06-11T11:32:03.771Z,3.30
2018-06-11T11:34:32.533Z,3.10
2018-06-11T11:37:01.297Z,3.00
2018-06-11T11:39:30.062Z,3.37
2018-06-11T11:41:58.809Z,3.30
2018-06-11T11:44:27.567Z,3.07
2018-06-11T11:46:56.318Z,3.17
2018-06-11T11:49:24.900Z,3.53
2018-06-11T11:51:53.565Z,3.30
2018-06-11T11:54:22.378Z,3.23
2018-06-11T11:56:51.156Z,3.27
2018-06-11T11:59:19.688Z,2.80
2018-06-11T12:01:48.399Z,3.00
2018-06-11T12:04:17.173Z,2.90
2018-06-11T12:06:46.073Z,3.07
2018-06-11T12:09:14.833Z,3.17
2018-06-11T12:11:43.573Z,3.73
2018-06-11T12:14:12.317Z,3.20
2018-06-11T12:16:40.985Z,3.23
2018-06-11T12:19:09.762Z,2.90
2018-06-11T12:21:38.264Z,3.23
2018-06-11T12:24:07.154Z,3.77
2018-06-11T12:26:35.893Z,4.00
2018-06-11T12:29:04.484Z,3.20
2018-06-11T12:31:33.152Z,3.67
2018-06-11T12:34:01.921Z,2.97
2018-06-11T12:36:30.725Z,3.70
2018-06-11T12:38:59.493Z,3.23
2018-06-11T12:41:28.253Z,3.33
2018-06-11T12:43:57.075Z,3.00
2018-06-11T12:46:25.812Z,3.10
2018-06-11T12:48:54.581Z,2.40
2018-06-11T12:51:23.176Z,2.83
2018-06-11T12:53:51.845Z,3.03
2018-06-11T12:56:20.499Z,3.17
2018-06-11T12:58:49.100Z,2.53
2018-06-11T13:01:17.869Z,2.60
2018-06-11T13:03:46.637Z,3.00
2018-06-11T13:06:15.401Z,2.60
2018-06-11T13:08:44.153Z,2.73
2018-06-11T13:11:12.948Z,2.73
2018-06-11T13:13:41.685Z,3.00
2018-06-11T13:16:10.683Z,3.20
2018-06-11T13:18:39.404Z,3.37
2018-06-11T13:21:08.178Z,3.00
2018-06-11T13:23:36.946Z,3.03
2018-06-11T13:26:05.701Z,3.20
2018-06-11T13:28:34.450Z,3.03
2018-06-11T13:31:03.212Z,3.00
2018-06-11T13:33:32.008Z,3.70
2018-06-11T13:36:00.785Z,3.20
2018-06-11T13:38:29.529Z,2.60
2018-06-11T13:40:58.085Z,3.67
2018-06-11T13:43:26.741Z,2.80
2018-06-11T13:45:55.509Z,3.70
2018-06-11T13:48:24.261Z,3.10
2018-06-11T13:50:53.029Z,3.07
2018-06-11T13:53:21.784Z,3.10
2018-06-11T13:55:50.553Z,2.73
2018-06-11T13:58:19.285Z,2.87
2018-06-11T14:00:48.048Z,2.70
2018-06-11T14:03:16.789Z,2.87
2018-06-11T14:05:45.581Z,2.60
2018-06-11T14:08:14.285Z,2.83
2018-06-11T14:10:43.042Z,2.67
2018-06-11T14:13:11.785Z,3.63
2018-06-11T14:15:40.537Z,2.70
2018-06-11T14:18:09.117Z,3.10
2018-06-11T14:20:37.788Z,2.90
2018-06-11T14:23:06.545Z,3.40
2018-06-11T14:25:35.317Z,2.90
2018-06-11T14:28:04.101Z,3.33
2018-06-11T14:30:32.868Z,2.90
2018-06-11T14:33:01.685Z,2.67
2018-06-11T14:35:30.425Z,2.83
2018-06-11T14:37:59.202Z,2.90
2018-06-11T14:40:27.973Z,3.00
2018-06-11T14:42:56.901Z,2.77
2018-06-11T14:45:25.493Z,2.33
2018-06-11T14:47:54.260Z,3.00
2018-06-11T14:50:23.043Z,2.80
2018-06-11T14:52:51.799Z,2.50
2018-06-11T14:55:20.729Z,2.43
2018-06-11T14:57:49.547Z,2.57
2018-06-11T15:00:18.140Z,2.77
2018-06-11T15:02:46.825Z,2.40
2018-06-11T15:05:15.602Z,2.60
2018-06-11T15:07:44.357Z,2.83
2018-06-11T15:10:13.258Z,2.80
2018-06-11T15:12:42.263Z,2.40
2018-06-11T15:15:11.017Z,2.60
2018-06-11T15:17:39.821Z,2.60
2018-06-11T15:20:08.571Z,2.60
2018-06-11T15:22:37.405Z,2.83
2018-06-11T15:25:06.298Z,2.30
2018-06-11T15:27:35.091Z,2.40
2018-06-11T15:30:03.650Z,2.60
2018-06-11T15:32:32.319Z,2.80
2018-06-11T15:35:01.065Z,2.73
2018-06-11T15:37:29.818Z,2.73
2018-06-11T15:39:58.646Z,2.97
2018-06-11T15:42:27.408Z,2.10
2018-06-11T15:44:56.170Z,2.93
2018-06-11T15:47:24.965Z,2.10
2018-06-11T15:49:53.721Z,2.10
2018-06-11T15:52:22.490Z,2.27
2018-06-11T15:54:51.247Z,2.20
2018-06-11T15:57:20.006Z,2.53
2018-06-11T15:59:48.785Z,2.00
2018-06-11T16:02:17.560Z,2.40
2018-06-11T16:04:46.285Z,2.60
2018-06-11T16:07:15.045Z,2.30
2018-06-11T16:09:43.794Z,2.30
2018-06-11T16:12:12.590Z,2.60
2018-06-11T16:14:41.336Z,3.07
2018-06-11T16:17:10.273Z,2.30
2018-06-11T16:19:39.005Z,2.10
2018-06-11T16:22:07.761Z,2.23
2018-06-11T16:24:36.505Z,2.33
2018-06-11T16:27:05.077Z,2.37
2018-06-11T16:29:33.927Z,2.40
2018-06-11T16:32:02.664Z,3.03
2018-06-11T16:34:31.418Z,3.00
2018-06-11T16:37:00.250Z,2.50
2018-06-11T16:39:28.946Z,2.67
2018-06-11T16:41:57.526Z,2.47
2018-06-11T16:44:26.244Z,2.80
2018-06-11T16:46:55.001Z,2.60
2018-06-11T16:49:23.537Z,2.27
2018-06-11T16:51:52.205Z,2.47
2018-06-11T16:54:20.957Z,2.30
2018-06-11T16:56:49.541Z,2.40
2018-06-11T16:59:18.393Z,2.27
2018-06-11T17:01:47.165Z,2.40
2018-06-11T17:04:15.904Z,2.27
2018-06-11T17:06:44.661Z,2.43
2018-06-11T17:09:13.408Z,2.80
2018-06-11T17:11:42.437Z,2.67
2018-06-11T17:14:11.249Z,2.73
2018-06-11T17:16:39.985Z,2.80
2018-06-11T17:19:08.749Z,2.30
2018-06-11T17:21:37.500Z,2.83
2018-06-11T17:24:06.457Z,2.30
2018-06-11T17:26:35.252Z,2.67
2018-06-11T17:29:04.190Z,2.77
2018-06-11T17:31:32.948Z,2.20
2018-06-11T17:34:03.805Z,2.93
2018-06-11T17:36:32.396Z,2.40
2018-06-11T17:39:00.961Z,2.40
2018-06-11T17:41:29.649Z,2.13
2018-06-11T17:43:58.400Z,2.30
2018-06-11T17:46:27.181Z,2.40
2018-06-11T17:48:55.937Z,2.17
2018-06-11T17:51:24.670Z,2.43
2018-06-11T17:53:53.413Z,1.93
2018-06-11T17:56:22.161Z,2.37
2018-06-11T17:58:50.937Z,2.40
2018-06-11T18:01:19.676Z,2.50
2018-06-11T18:03:48.506Z,2.40
2018-06-11T18:06:17.308Z,2.67
2018-06-11T18:08:46.022Z,1.80
2018-06-11T18:11:14.764Z,2.43
2018-06-11T18:13:44.397Z,2.57
2018-06-11T18:16:13.193Z,2.00
2018-06-11T18:18:41.977Z,2.60
2018-06-11T18:21:10.708Z,2.50
2018-06-11T18:23:39.466Z,2.33
2018-06-11T18:26:08.281Z,2.20
2018-06-11T18:28:37.084Z,2.30
2018-06-11T18:31:05.845Z,2.73
2018-06-11T18:33:34.648Z,2.40
2018-06-11T18:36:03.529Z,2.50
2018-06-11T18:38:32.289Z,2.40
2018-06-11T18:41:01.041Z,2.03
2018-06-11T18:43:29.782Z,2.90
2018-06-11T18:45:58.589Z,3.13
2018-06-11T18:48:27.345Z,2.80
2018-06-11T18:50:56.148Z,2.90
2018-06-11T18:53:24.897Z,3.03
2018-06-11T18:55:53.631Z,3.10
2018-06-11T18:58:22.390Z,2.60
2018-06-11T19:00:52.733Z,2.90
2018-06-11T19:03:21.529Z,2.40
2018-06-11T19:05:50.792Z,2.87
2018-06-11T19:08:19.682Z,2.67
2018-06-11T19:10:48.461Z,2.37
2018-06-11T19:13:21.145Z,2.80
2018-06-11T19:15:49.882Z,2.87
2018-06-11T19:18:18.639Z,2.67
2018-06-11T19:20:47.421Z,2.83
2018-06-11T19:23:16.184Z,2.80
2018-06-11T19:25:44.921Z,2.87
2018-06-11T19:28:13.712Z,3.17
2018-06-11T19:30:42.455Z,3.50
2018-06-11T19:33:11.279Z,3.33
2018-06-11T19:35:39.974Z,3.53
2018-06-11T19:38:08.733Z,3.57
2018-06-11T19:40:37.524Z,3.63
2018-06-11T19:43:06.256Z,4.03
2018-06-11T19:45:35.017Z,3.00
2018-06-11T19:48:03.843Z,3.77
2018-06-11T19:50:32.673Z,4.07
2018-06-11T19:53:01.482Z,3.33
2018-06-11T19:55:30.536Z,3.63
2018-06-11T19:57:59.321Z,3.53
2018-06-11T20:00:28.065Z,3.77
2018-06-11T20:02:57.068Z,3.87
2018-06-11T20:05:26.313Z,3.13
2018-06-11T20:07:55.141Z,3.30
2018-06-11T20:10:23.989Z,3.37
2018-06-11T20:12:52.775Z,3.73
2018-06-11T20:15:21.542Z,4.13
2018-06-11T20:17:50.300Z,3.60
2018-06-11T20:20:19.085Z,3.40
2018-06-11T20:22:47.849Z,3.43
2018-06-11T20:25:16.588Z,3.53
2018-06-11T20:27:45.345Z,2.83
2018-06-11T20:30:14.110Z,3.20
2018-06-11T20:32:42.933Z,3.17
2018-06-11T20:35:11.684Z,2.73
2018-06-11T20:37:40.509Z,2.90
2018-06-11T20:40:09.206Z,3.20
2018-06-11T20:42:37.968Z,3.10
2018-06-11T20:45:06.743Z,2.83
2018-06-11T20:47:35.515Z,2.60
2018-06-11T20:50:04.274Z,2.70
2018-06-11T20:52:33.103Z,2.03
2018-06-11T20:55:01.930Z,2.50
2018-06-11T20:57:30.696Z,2.20
2018-06-11T20:59:59.477Z,2.00
2018-06-11T21:02:28.213Z,2.07
2018-06-11T21:04:56.985Z,1.70
2018-06-11T21:07:25.721Z,1.70
2018-06-11T21:09:54.490Z,1.63
2018-06-11T21:12:23.280Z,1.57
2018-06-11T21:14:52.051Z,1.43
2018-06-11T21:17:20.809Z,1.70
2018-06-11T21:19:49.597Z,1.50
2018-06-11T21:22:18.455Z,2.00
2018-06-11T21:24:47.311Z,1.50
2018-06-11T21:27:16.295Z,1.77
2018-06-11T21:29:45.039Z,2.47
2018-06-11T21:32:13.844Z,1.53
2018-06-11T21:34:42.638Z,1.90
2018-06-11T21:37:11.498Z,1.63
2018-06-11T21:39:40.279Z,2.23
2018-06-11T21:42:09.099Z,1.83
2018-06-11T21:44:37.873Z,1.67
2018-06-11T21:47:06.649Z,1.80
2018-06-11T21:49:35.413Z,1.53
2018-06-11T21:52:04.193Z,1.93
2018-06-11T21:54:33.017Z,1.90
2018-06-11T21:57:01.788Z,1.40
2018-06-11T21:59:30.546Z,1.60
2018-06-11T22:01:59.133Z,1.87
2018-06-11T22:04:27.796Z,1.80
2018-06-11T22:06:56.587Z,1.43
2018-06-11T22:09:25.381Z,1.83
2018-06-11T22:11:54.273Z,1.53
2018-06-11T22:14:23.025Z,2.07
2018-06-11T22:16:51.817Z,1.80
2018-06-11T22:19:20.566Z,2.47
2018-06-11T22:21:49.324Z,2.30
2018-06-11T22:24:18.087Z,1.60
2018-06-11T22:26:46.848Z,2.00
2018-06-11T22:29:15.601Z,1.90
2018-06-11T22:31:44.197Z,2.40
2018-06-11T22:34:12.861Z,2.20
2018-06-11T22:36:41.621Z,1.87
2018-06-11T22:39:10.381Z,2.40
2018-06-11T22:41:39.140Z,1.87
2018-06-11T22:44:07.898Z,1.73
2018-06-11T22:46:36.672Z,1.70
2018-06-11T22:49:05.460Z,1.60
2018-06-11T22:51:34.229Z,1.50
2018-06-11T22:54:03.141Z,1.70
2018-06-11T22:56:31.941Z,2.00
2018-06-11T22:59:00.694Z,1.67
2018-06-11T23:01:29.453Z,1.37
2018-06-11T23:03:58.205Z,1.80
2018-06-11T23:06:26.955Z,2.20
2018-06-11T23:08:55.741Z,2.07
2018-06-11T23:11:24.504Z,1.67
2018-06-11T23:13:53.273Z,1.90
2018-06-11T23:16:21.863Z,1.77
2018-06-11T23:18:50.547Z,1.80
2018-06-11T23:21:19.163Z,1.70
2018-06-11T23:23:47.821Z,1.80
2018-06-11T23:26:16.392Z,1.50
2018-06-11T23:28:45.060Z,1.47
2018-06-11T23:31:13.853Z,1.80
2018-06-11T23:33:42.602Z,1.60
2018-06-11T23:36:11.369Z,1.30
2018-06-11T23:38:40.118Z,1.30
2018-06-11T23:41:08.913Z,1.70
2018-06-11T23:43:37.666Z,1.40
2018-06-11T23:46:06.461Z,1.50
2018-06-11T23:48:35.231Z,1.57
2018-06-11T23:51:03.982Z,1.80
2018-06-11T23:53:32.801Z,1.90
2018-06-11T23:56:01.556Z,1.43
2018-06-11T23:58:30.142Z,1.60
